sensor_id;sensor_type;location;lat;lon;timestamp;pressure;altitude;pressure_sealevel;temperature;humidity
64739;BME280;51175;51.186;0.276;2023-04-28T00:00:19;100510.34;;;16.04;67.01
64739;BME280;51175;51.186;0.276;2023-04-28T00:00:49;100505.81;;;16.05;66.84
64739;BME280;51175;51.186;0.276;2023-04-28T00:01:20;100506.91;;;16.04;67.03
64739;BME280;51175;51.186;0.276;2023-04-28T00:01:50;100506.09;;;16.03;66.95
64739;BME280;51175;51.186;0.276;2023-04-28T00:02:21;100507.66;;;16.04;66.96
64739;BME280;51175;51.186;0.276;2023-04-28T00:02:51;100509.56;;;16.04;66.96
64739;BME280;51175;51.186;0.276;2023-04-28T00:03:22;100504.22;;;16.04;67.05
64739;BME280;51175;51.186;0.276;2023-04-28T00:03:53;100502.63;;;16.03;67.08
64739;BME280;51175;51.186;0.276;2023-04-28T00:04:24;100502.34;;;16.04;67.10
64739;BME280;51175;51.186;0.276;2023-04-28T00:04:54;100495.44;;;16.03;66.85
64739;BME280;51175;51.186;0.276;2023-04-28T00:05:25;100495.44;;;16.03;67.22
64739;BME280;51175;51.186;0.276;2023-04-28T00:05:55;100493.56;;;16.04;66.83
64739;BME280;51175;51.186;0.276;2023-04-28T00:06:26;100500.78;;;16.03;66.85
64739;BME280;51175;51.186;0.276;2023-04-28T00:06:57;100504.22;;;16.04;67.11
64739;BME280;51175;51.186;0.276;2023-04-28T00:07:27;100492.78;;;16.03;66.98
64739;BME280;51175;51.186;0.276;2023-04-28T00:07:58;100494.34;;;16.04;67.22
64739;BME280;51175;51.186;0.276;2023-04-28T00:08:28;100490.91;;;16.04;67.11
64739;BME280;51175;51.186;0.276;2023-04-28T00:08:58;100490.91;;;16.04;67.17
64739;BME280;51175;51.186;0.276;2023-04-28T00:09:29;100487.44;;;16.03;67.44
64739;BME280;51175;51.186;0.276;2023-04-28T00:10:00;100495.44;;;16.03;66.96
64739;BME280;51175;51.186;0.276;2023-04-28T00:10:30;100486.66;;;16.03;66.89
64739;BME280;51175;51.186;0.276;2023-04-28T00:11:00;100486.66;;;16.03;67.27
64739;BME280;51175;51.186;0.276;2023-04-28T00:11:31;100486.66;;;16.03;67.01
64739;BME280;51175;51.186;0.276;2023-04-28T00:12:01;100483.22;;;16.02;67.18
64739;BME280;51175;51.186;0.276;2023-04-28T00:12:32;100483.22;;;16.02;66.91
64739;BME280;51175;51.186;0.276;2023-04-28T00:13:02;100490.91;;;16.04;66.98
64739;BME280;51175;51.186;0.276;2023-04-28T00:13:33;100487.44;;;16.03;67.33
64739;BME280;51175;51.186;0.276;2023-04-28T00:14:04;100481.31;;;16.03;67.01
64739;BME280;51175;51.186;0.276;2023-04-28T00:14:35;100483.22;;;16.02;67.13
64739;BME280;51175;51.186;0.276;2023-04-28T00:15:06;100484.78;;;16.03;66.94
64739;BME280;51175;51.186;0.276;2023-04-28T00:15:36;100490.41;;;16.01;67.04
64739;BME280;51175;51.186;0.276;2023-04-28T00:16:06;100486.66;;;16.03;66.96
64739;BME280;51175;51.186;0.276;2023-04-28T00:16:37;100484.78;;;16.03;67.04
64739;BME280;51175;51.186;0.276;2023-04-28T00:17:07;100484.28;;;16.01;67.04
64739;BME280;51175;51.186;0.276;2023-04-28T00:17:39;100490.41;;;16.01;66.91
64739;BME280;51175;51.186;0.276;2023-04-28T00:18:09;100479.75;;;16.01;66.91
64739;BME280;51175;51.186;0.276;2023-04-28T00:18:40;100477.09;;;16.01;67.28
64739;BME280;51175;51.186;0.276;2023-04-28T00:19:10;100483.22;;;16.02;66.87
64739;BME280;51175;51.186;0.276;2023-04-28T00:19:41;100471.75;;;16.01;66.88
64739;BME280;51175;51.186;0.276;2023-04-28T00:20:11;100477.91;;;16.02;66.95
64739;BME280;51175;51.186;0.276;2023-04-28T00:20:42;100480.56;;;16.02;67.24
64739;BME280;51175;51.186;0.276;2023-04-28T00:21:12;100480.56;;;16.02;67.25
64739;BME280;51175;51.186;0.276;2023-04-28T00:21:42;100475.22;;;16.02;67.25
64739;BME280;51175;51.186;0.276;2023-04-28T00:22:13;100474.44;;;16.01;67.08
64739;BME280;51175;51.186;0.276;2023-04-28T00:22:44;100479.75;;;16.01;67.10
64739;BME280;51175;51.186;0.276;2023-04-28T00:23:14;100477.09;;;16.01;67.11
64739;BME280;51175;51.186;0.276;2023-04-28T00:23:45;100476.28;;;16.01;67.17
64739;BME280;51175;51.186;0.276;2023-04-28T00:24:15;100479.75;;;16.01;66.91
64739;BME280;51175;51.186;0.276;2023-04-28T00:24:45;100473.63;;;16.01;67.19
64739;BME280;51175;51.186;0.276;2023-04-28T00:25:16;100477.09;;;16.01;67.11
64739;BME280;51175;51.186;0.276;2023-04-28T00:25:50;100472.56;;;16.02;67.12
64739;BME280;51175;51.186;0.276;2023-04-28T00:26:21;100474.44;;;16.01;67.31
64739;BME280;51175;51.186;0.276;2023-04-28T00:26:51;100484.28;;;16.01;67.05
64739;BME280;51175;51.186;0.276;2023-04-28T00:27:24;100484.00;;;16.03;67.24
64739;BME280;51175;51.186;0.276;2023-04-28T00:27:55;100476.28;;;16.01;67.36
64739;BME280;51175;51.186;0.276;2023-04-28T00:28:25;100477.09;;;16.01;67.24
64739;BME280;51175;51.186;0.276;2023-04-28T00:28:56;100470.19;;;16.00;67.24
64739;BME280;51175;51.186;0.276;2023-04-28T00:29:27;100478.66;;;16.03;67.22
64739;BME280;51175;51.186;0.276;2023-04-28T00:29:58;100475.53;;;16.00;67.11
64739;BME280;51175;51.186;0.276;2023-04-28T00:30:29;100473.63;;;16.01;67.09
64739;BME280;51175;51.186;0.276;2023-04-28T00:31:00;100470.97;;;16.01;67.05
64739;BME280;51175;51.186;0.276;2023-04-28T00:31:30;100473.63;;;16.01;67.08
64739;BME280;51175;51.186;0.276;2023-04-28T00:32:01;100473.63;;;16.01;67.10
64739;BME280;51175;51.186;0.276;2023-04-28T00:32:31;100472.88;;;16.00;66.98
64739;BME280;51175;51.186;0.276;2023-04-28T00:33:02;100476.28;;;16.01;67.22
64739;BME280;51175;51.186;0.276;2023-04-28T00:33:32;100476.28;;;16.01;67.35
64739;BME280;51175;51.186;0.276;2023-04-28T00:34:02;100472.88;;;16.00;67.15
64739;BME280;51175;51.186;0.276;2023-04-28T00:34:33;100477.09;;;16.01;67.25
64739;BME280;51175;51.186;0.276;2023-04-28T00:35:06;100465.94;;;15.99;66.99
64739;BME280;51175;51.186;0.276;2023-04-28T00:35:37;100469.41;;;16.00;66.92
64739;BME280;51175;51.186;0.276;2023-04-28T00:36:07;100472.88;;;16.00;67.23
64739;BME280;51175;51.186;0.276;2023-04-28T00:36:38;100472.06;;;16.00;67.07
64739;BME280;51175;51.186;0.276;2023-04-28T00:37:09;100473.63;;;16.01;67.11
64739;BME280;51175;51.186;0.276;2023-04-28T00:37:39;100475.53;;;16.00;67.23
64739;BME280;51175;51.186;0.276;2023-04-28T00:38:10;100470.19;;;16.00;67.44
64739;BME280;51175;51.186;0.276;2023-04-28T00:38:40;100462.97;;;16.01;67.03
64739;BME280;51175;51.186;0.276;2023-04-28T00:39:10;100470.97;;;16.01;67.04
64739;BME280;51175;51.186;0.276;2023-04-28T00:39:41;100465.66;;;16.01;67.36
64739;BME280;51175;51.186;0.276;2023-04-28T00:40:16;100464.88;;;16.00;67.10
64739;BME280;51175;51.186;0.276;2023-04-28T00:40:46;100464.88;;;16.00;67.04
64739;BME280;51175;51.186;0.276;2023-04-28T00:41:16;100464.88;;;16.00;67.06
64739;BME280;51175;51.186;0.276;2023-04-28T00:41:47;100459.53;;;16.00;67.19
64739;BME280;51175;51.186;0.276;2023-04-28T00:42:17;100462.22;;;16.00;67.09
64739;BME280;51175;51.186;0.276;2023-04-28T00:42:48;100460.31;;;16.01;67.02
64739;BME280;51175;51.186;0.276;2023-04-28T00:43:18;100460.31;;;16.01;67.29
64739;BME280;51175;51.186;0.276;2023-04-28T00:43:49;100458.75;;;16.00;67.03
64739;BME280;51175;51.186;0.276;2023-04-28T00:44:19;100464.06;;;16.00;67.38
64739;BME280;51175;51.186;0.276;2023-04-28T00:44:50;100464.88;;;16.00;67.10
64739;BME280;51175;51.186;0.276;2023-04-28T00:45:20;100464.06;;;16.00;67.38
64739;BME280;51175;51.186;0.276;2023-04-28T00:45:51;100465.66;;;16.01;67.03
64739;BME280;51175;51.186;0.276;2023-04-28T00:46:29;100464.06;;;16.00;67.07
64739;BME280;51175;51.186;0.276;2023-04-28T00:47:01;100464.88;;;16.00;67.00
64739;BME280;51175;51.186;0.276;2023-04-28T00:47:33;100460.63;;;15.99;67.18
64739;BME280;51175;51.186;0.276;2023-04-28T00:48:03;100458.75;;;16.00;67.41
64739;BME280;51175;51.186;0.276;2023-04-28T00:48:34;100462.22;;;16.00;67.15
64739;BME280;51175;51.186;0.276;2023-04-28T00:49:05;100464.88;;;16.00;67.12
64739;BME280;51175;51.186;0.276;2023-04-28T00:49:35;100461.41;;;16.00;67.38
64739;BME280;51175;51.186;0.276;2023-04-28T00:50:06;100462.22;;;16.00;67.11
64739;BME280;51175;51.186;0.276;2023-04-28T00:50:37;100461.41;;;16.00;67.23
64739;BME280;51175;51.186;0.276;2023-04-28T00:51:07;100458.75;;;16.00;67.32
64739;BME280;51175;51.186;0.276;2023-04-28T00:51:37;100462.47;;;15.99;67.27
64739;BME280;51175;51.186;0.276;2023-04-28T00:52:08;100462.22;;;16.00;67.29
64739;BME280;51175;51.186;0.276;2023-04-28T00:52:39;100456.88;;;16.00;67.10
64739;BME280;51175;51.186;0.276;2023-04-28T00:53:11;100464.06;;;16.00;67.17
64739;BME280;51175;51.186;0.276;2023-04-28T00:53:43;100455.28;;;15.99;67.31
64739;BME280;51175;51.186;0.276;2023-04-28T00:54:13;100451.56;;;16.00;67.08
64739;BME280;51175;51.186;0.276;2023-04-28T00:54:44;100453.41;;;16.00;67.20
64739;BME280;51175;51.186;0.276;2023-04-28T00:55:18;100456.09;;;16.00;67.02
64739;BME280;51175;51.186;0.276;2023-04-28T00:55:50;100452.63;;;15.99;67.41
64739;BME280;51175;51.186;0.276;2023-04-28T00:56:22;100451.81;;;15.99;67.05
64739;BME280;51175;51.186;0.276;2023-04-28T00:56:53;100454.22;;;16.00;67.32
64739;BME280;51175;51.186;0.276;2023-04-28T00:57:24;100449.16;;;15.99;67.31
64739;BME280;51175;51.186;0.276;2023-04-28T00:57:55;100454.22;;;16.00;67.23
64739;BME280;51175;51.186;0.276;2023-04-28T00:58:26;100451.81;;;15.99;67.07
64739;BME280;51175;51.186;0.276;2023-04-28T00:58:57;100447.28;;;15.99;67.23
64739;BME280;51175;51.186;0.276;2023-04-28T00:59:28;100449.16;;;15.99;67.25
64739;BME280;51175;51.186;0.276;2023-04-28T00:59:59;100447.28;;;15.99;67.04
64739;BME280;51175;51.186;0.276;2023-04-28T01:00:29;100446.50;;;15.99;67.27
64739;BME280;51175;51.186;0.276;2023-04-28T01:01:04;100443.84;;;15.99;67.24
64739;BME280;51175;51.186;0.276;2023-04-28T01:01:35;100443.84;;;15.99;67.23
64739;BME280;51175;51.186;0.276;2023-04-28T01:02:06;100449.97;;;15.99;67.29
64739;BME280;51175;51.186;0.276;2023-04-28T01:02:36;100449.97;;;15.99;67.28
64739;BME280;51175;51.186;0.276;2023-04-28T01:03:08;100453.41;;;16.00;67.42
64739;BME280;51175;51.186;0.276;2023-04-28T01:03:39;100451.06;;;15.98;67.40
64739;BME280;51175;51.186;0.276;2023-04-28T01:04:10;100456.09;;;16.00;67.00
64739;BME280;51175;51.186;0.276;2023-04-28T01:04:40;100447.28;;;15.99;67.14
64739;BME280;51175;51.186;0.276;2023-04-28T01:05:12;100454.50;;;15.99;67.17
64739;BME280;51175;51.186;0.276;2023-04-28T01:05:43;100449.16;;;15.99;67.15
64739;BME280;51175;51.186;0.276;2023-04-28T01:06:14;100451.81;;;15.99;67.01
64739;BME280;51175;51.186;0.276;2023-04-28T01:06:50;100449.97;;;15.99;67.16
64739;BME280;51175;51.186;0.276;2023-04-28T01:07:21;100450.75;;;16.00;67.32
64739;BME280;51175;51.186;0.276;2023-04-28T01:07:52;100449.97;;;15.99;67.47
64739;BME280;51175;51.186;0.276;2023-04-28T01:08:26;100439.31;;;15.99;67.16
64739;BME280;51175;51.186;0.276;2023-04-28T01:08:57;100447.28;;;15.99;67.37
64739;BME280;51175;51.186;0.276;2023-04-28T01:09:28;100449.16;;;15.99;67.23
64739;BME280;51175;51.186;0.276;2023-04-28T01:09:58;100446.50;;;15.99;67.25
64739;BME280;51175;51.186;0.276;2023-04-28T01:10:28;100446.50;;;15.99;67.16
64739;BME280;51175;51.186;0.276;2023-04-28T01:10:59;100441.16;;;15.99;67.52
64739;BME280;51175;51.186;0.276;2023-04-28T01:11:29;100447.28;;;15.99;67.33
64739;BME280;51175;51.186;0.276;2023-04-28T01:12:00;100444.94;;;15.98;67.20
64739;BME280;51175;51.186;0.276;2023-04-28T01:12:30;100445.72;;;15.98;67.50
64739;BME280;51175;51.186;0.276;2023-04-28T01:13:01;100449.97;;;15.99;67.17
64739;BME280;51175;51.186;0.276;2023-04-28T01:13:32;100443.84;;;15.99;67.17
64739;BME280;51175;51.186;0.276;2023-04-28T01:14:02;100448.09;;;16.00;67.47
64739;BME280;51175;51.186;0.276;2023-04-28T01:14:33;100447.28;;;15.99;67.18
64739;BME280;51175;51.186;0.276;2023-04-28T01:15:05;100443.06;;;15.98;67.39
64739;BME280;51175;51.186;0.276;2023-04-28T01:15:35;100447.28;;;15.99;67.42
64739;BME280;51175;51.186;0.276;2023-04-28T01:16:06;100445.44;;;16.00;67.26
64739;BME280;51175;51.186;0.276;2023-04-28T01:16:37;100449.16;;;15.99;67.36
64739;BME280;51175;51.186;0.276;2023-04-28T01:17:09;100448.88;;;16.00;67.12
64739;BME280;51175;51.186;0.276;2023-04-28T01:17:39;100448.09;;;16.00;67.32
64739;BME280;51175;51.186;0.276;2023-04-28T01:18:10;100444.63;;;15.99;67.20
64739;BME280;51175;51.186;0.276;2023-04-28T01:18:46;100441.16;;;15.99;67.26
64739;BME280;51175;51.186;0.276;2023-04-28T01:19:19;100445.72;;;15.98;67.15
64739;BME280;51175;51.186;0.276;2023-04-28T01:19:53;100451.81;;;15.99;67.35
64739;BME280;51175;51.186;0.276;2023-04-28T01:20:23;100448.38;;;15.98;67.26
64739;BME280;51175;51.186;0.276;2023-04-28T01:20:54;100448.38;;;15.98;67.35
64739;BME280;51175;51.186;0.276;2023-04-28T01:21:29;100443.06;;;15.98;67.35
64739;BME280;51175;51.186;0.276;2023-04-28T01:22:01;100447.59;;;15.98;67.30
64739;BME280;51175;51.186;0.276;2023-04-28T01:22:32;100444.94;;;15.98;67.41
64739;BME280;51175;51.186;0.276;2023-04-28T01:23:02;100442.25;;;15.98;67.44
64739;BME280;51175;51.186;0.276;2023-04-28T01:23:32;100446.78;;;15.97;67.56
64739;BME280;51175;51.186;0.276;2023-04-28T01:24:05;100449.16;;;15.99;67.44
64739;BME280;51175;51.186;0.276;2023-04-28T01:24:35;100444.94;;;15.98;67.51
64739;BME280;51175;51.186;0.276;2023-04-28T01:25:06;100457.16;;;15.99;67.44
64739;BME280;51175;51.186;0.276;2023-04-28T01:25:36;100455.59;;;15.98;67.47
64739;BME280;51175;51.186;0.276;2023-04-28T01:26:06;100451.06;;;15.98;67.35
64739;BME280;51175;51.186;0.276;2023-04-28T01:26:37;100450.25;;;15.98;67.45
64739;BME280;51175;51.186;0.276;2023-04-28T01:27:07;100453.72;;;15.98;67.36
64739;BME280;51175;51.186;0.276;2023-04-28T01:27:38;100451.06;;;15.98;67.35
64739;BME280;51175;51.186;0.276;2023-04-28T01:28:09;100448.38;;;15.98;67.64
64739;BME280;51175;51.186;0.276;2023-04-28T01:28:40;100445.72;;;15.98;67.38
64739;BME280;51175;51.186;0.276;2023-04-28T01:29:10;100455.28;;;15.99;67.56
64739;BME280;51175;51.186;0.276;2023-04-28T01:29:40;100452.63;;;15.99;67.58
64739;BME280;51175;51.186;0.276;2023-04-28T01:30:11;100449.16;;;15.99;67.29
64739;BME280;51175;51.186;0.276;2023-04-28T01:30:41;100452.63;;;15.99;67.20
64739;BME280;51175;51.186;0.276;2023-04-28T01:31:12;100449.97;;;15.99;67.33
64739;BME280;51175;51.186;0.276;2023-04-28T01:31:42;100443.84;;;15.99;67.47
64739;BME280;51175;51.186;0.276;2023-04-28T01:32:12;100453.72;;;15.98;67.44
64739;BME280;51175;51.186;0.276;2023-04-28T01:32:43;100447.59;;;15.98;67.55
64739;BME280;51175;51.186;0.276;2023-04-28T01:33:13;100443.84;;;15.99;67.29
64739;BME280;51175;51.186;0.276;2023-04-28T01:33:43;100449.97;;;15.99;67.41
64739;BME280;51175;51.186;0.276;2023-04-28T01:34:14;100447.28;;;15.99;67.65
64739;BME280;51175;51.186;0.276;2023-04-28T01:34:44;100447.28;;;15.99;67.28
64739;BME280;51175;51.186;0.276;2023-04-28T01:35:15;100449.16;;;15.99;67.41
64739;BME280;51175;51.186;0.276;2023-04-28T01:35:45;100454.50;;;15.99;67.23
64739;BME280;51175;51.186;0.276;2023-04-28T01:36:16;100455.28;;;15.99;67.52
64739;BME280;51175;51.186;0.276;2023-04-28T01:36:46;100452.63;;;15.99;67.26
64739;BME280;51175;51.186;0.276;2023-04-28T01:37:18;100441.97;;;15.99;67.66
64739;BME280;51175;51.186;0.276;2023-04-28T01:37:48;100450.75;;;16.00;67.60
64739;BME280;51175;51.186;0.276;2023-04-28T01:38:18;100451.81;;;15.99;67.56
64739;BME280;51175;51.186;0.276;2023-04-28T01:38:49;100448.09;;;16.00;67.38
64739;BME280;51175;51.186;0.276;2023-04-28T01:39:20;100445.44;;;16.00;67.48
64739;BME280;51175;51.186;0.276;2023-04-28T01:39:51;100444.63;;;15.99;67.45
64739;BME280;51175;51.186;0.276;2023-04-28T01:40:21;100448.09;;;16.00;67.68
64739;BME280;51175;51.186;0.276;2023-04-28T01:40:53;100448.09;;;16.00;67.60
64739;BME280;51175;51.186;0.276;2023-04-28T01:41:24;100442.75;;;16.00;67.28
64739;BME280;51175;51.186;0.276;2023-04-28T01:41:55;100446.50;;;15.99;67.46
64739;BME280;51175;51.186;0.276;2023-04-28T01:42:25;100449.16;;;15.99;67.43
64739;BME280;51175;51.186;0.276;2023-04-28T01:42:55;100441.97;;;15.99;67.49
64739;BME280;51175;51.186;0.276;2023-04-28T01:43:26;100445.72;;;15.98;67.53
64739;BME280;51175;51.186;0.276;2023-04-28T01:43:56;100441.97;;;15.99;67.58
64739;BME280;51175;51.186;0.276;2023-04-28T01:44:27;100446.50;;;15.99;67.39
64739;BME280;51175;51.186;0.276;2023-04-28T01:44:57;100443.06;;;15.98;67.35
64739;BME280;51175;51.186;0.276;2023-04-28T01:45:27;100443.06;;;15.98;67.73
64739;BME280;51175;51.186;0.276;2023-04-28T01:45:58;100446.50;;;15.99;67.34
64739;BME280;51175;51.186;0.276;2023-04-28T01:46:28;100443.84;;;15.99;67.52
64739;BME280;51175;51.186;0.276;2023-04-28T01:46:58;100448.09;;;16.00;67.56
64739;BME280;51175;51.186;0.276;2023-04-28T01:47:29;100447.28;;;15.99;67.53
64739;BME280;51175;51.186;0.276;2023-04-28T01:47:59;100441.97;;;15.99;67.82
64739;BME280;51175;51.186;0.276;2023-04-28T01:48:30;100441.97;;;15.99;67.35
64739;BME280;51175;51.186;0.276;2023-04-28T01:49:00;100448.09;;;16.00;67.27
64739;BME280;51175;51.186;0.276;2023-04-28T01:49:31;100442.75;;;16.00;67.20
64739;BME280;51175;51.186;0.276;2023-04-28T01:50:01;100442.75;;;16.00;67.63
64739;BME280;51175;51.186;0.276;2023-04-28T01:50:32;100445.44;;;16.00;67.49
64739;BME280;51175;51.186;0.276;2023-04-28T01:51:02;100444.63;;;15.99;67.22
64739;BME280;51175;51.186;0.276;2023-04-28T01:51:32;100445.44;;;16.00;67.33
64739;BME280;51175;51.186;0.276;2023-04-28T01:52:03;100447.28;;;15.99;67.53
64739;BME280;51175;51.186;0.276;2023-04-28T01:52:33;100445.44;;;16.00;67.49
64739;BME280;51175;51.186;0.276;2023-04-28T01:53:04;100440.09;;;16.00;67.48
64739;BME280;51175;51.186;0.276;2023-04-28T01:53:34;100438.50;;;15.99;67.42
64739;BME280;51175;51.186;0.276;2023-04-28T01:54:05;100448.88;;;16.00;67.46
64739;BME280;51175;51.186;0.276;2023-04-28T01:54:35;100440.09;;;16.00;67.42
64739;BME280;51175;51.186;0.276;2023-04-28T01:55:06;100446.22;;;16.00;67.41
64739;BME280;51175;51.186;0.276;2023-04-28T01:55:37;100443.56;;;16.00;67.59
64739;BME280;51175;51.186;0.276;2023-04-28T01:56:07;100443.56;;;16.00;67.37
64739;BME280;51175;51.186;0.276;2023-04-28T01:56:38;100442.75;;;16.00;67.49
64739;BME280;51175;51.186;0.276;2023-04-28T01:57:08;100442.75;;;16.00;67.54
64739;BME280;51175;51.186;0.276;2023-04-28T01:57:38;100443.56;;;16.00;67.32
64739;BME280;51175;51.186;0.276;2023-04-28T01:58:09;100444.34;;;16.01;67.20
64739;BME280;51175;51.186;0.276;2023-04-28T01:58:39;100446.22;;;16.00;67.44
64739;BME280;51175;51.186;0.276;2023-04-28T01:59:10;100443.56;;;16.00;67.62
64739;BME280;51175;51.186;0.276;2023-04-28T01:59:40;100444.34;;;16.01;67.28
64739;BME280;51175;51.186;0.276;2023-04-28T02:00:11;100447.00;;;16.01;67.24
64739;BME280;51175;51.186;0.276;2023-04-28T02:00:41;100442.75;;;16.00;67.39
64739;BME280;51175;51.186;0.276;2023-04-28T02:01:12;100448.09;;;16.00;67.57
64739;BME280;51175;51.186;0.276;2023-04-28T02:01:43;100445.44;;;16.00;67.76
64739;BME280;51175;51.186;0.276;2023-04-28T02:02:13;100444.63;;;15.99;67.39
64739;BME280;51175;51.186;0.276;2023-04-28T02:02:43;100441.66;;;16.01;67.44
64739;BME280;51175;51.186;0.276;2023-04-28T02:03:14;100439.31;;;15.99;67.23
64739;BME280;51175;51.186;0.276;2023-04-28T02:03:44;100438.50;;;15.99;67.38
64739;BME280;51175;51.186;0.276;2023-04-28T02:04:15;100442.75;;;16.00;67.39
64739;BME280;51175;51.186;0.276;2023-04-28T02:04:45;100447.78;;;16.01;67.45
64739;BME280;51175;51.186;0.276;2023-04-28T02:05:16;100442.75;;;16.00;67.56
64739;BME280;51175;51.186;0.276;2023-04-28T02:05:46;100440.09;;;16.00;67.29
64739;BME280;51175;51.186;0.276;2023-04-28T02:06:16;100445.44;;;16.00;67.52
64739;BME280;51175;51.186;0.276;2023-04-28T02:06:47;100446.50;;;15.99;67.46
64739;BME280;51175;51.186;0.276;2023-04-28T02:07:17;100441.97;;;15.99;67.69
64739;BME280;51175;51.186;0.276;2023-04-28T02:07:47;100440.09;;;16.00;67.58
64739;BME280;51175;51.186;0.276;2023-04-28T02:08:18;100441.16;;;15.99;67.56
64739;BME280;51175;51.186;0.276;2023-04-28T02:08:48;100445.44;;;16.00;67.66
64739;BME280;51175;51.186;0.276;2023-04-28T02:09:18;100437.44;;;16.00;67.60
64739;BME280;51175;51.186;0.276;2023-04-28T02:09:49;100444.34;;;16.01;67.82
64739;BME280;51175;51.186;0.276;2023-04-28T02:10:19;100439.31;;;15.99;67.48
64739;BME280;51175;51.186;0.276;2023-04-28T02:10:50;100440.91;;;16.00;67.63
64739;BME280;51175;51.186;0.276;2023-04-28T02:11:21;100440.09;;;16.00;67.60
64739;BME280;51175;51.186;0.276;2023-04-28T02:11:51;100443.56;;;16.00;67.45
64739;BME280;51175;51.186;0.276;2023-04-28T02:12:21;100441.97;;;15.99;67.64
64739;BME280;51175;51.186;0.276;2023-04-28T02:12:52;100438.50;;;15.99;67.37
64739;BME280;51175;51.186;0.276;2023-04-28T02:13:22;100434.78;;;16.00;67.46
64739;BME280;51175;51.186;0.276;2023-04-28T02:13:53;100441.97;;;15.99;67.47
64739;BME280;51175;51.186;0.276;2023-04-28T02:14:24;100432.41;;;15.98;67.66
64739;BME280;51175;51.186;0.276;2023-04-28T02:14:54;100439.31;;;15.99;67.52
64739;BME280;51175;51.186;0.276;2023-04-28T02:15:24;100434.78;;;16.00;67.65
64739;BME280;51175;51.186;0.276;2023-04-28T02:15:55;100436.63;;;15.99;67.66
64739;BME280;51175;51.186;0.276;2023-04-28T02:16:25;100439.31;;;15.99;67.47
64739;BME280;51175;51.186;0.276;2023-04-28T02:16:55;100435.84;;;15.99;67.54
64739;BME280;51175;51.186;0.276;2023-04-28T02:17:30;100438.25;;;16.00;67.41
64739;BME280;51175;51.186;0.276;2023-04-28T02:18:00;100448.88;;;16.00;67.47
64739;BME280;51175;51.186;0.276;2023-04-28T02:18:30;100441.97;;;15.99;67.38
64739;BME280;51175;51.186;0.276;2023-04-28T02:19:01;100437.44;;;16.00;67.45
64739;BME280;51175;51.186;0.276;2023-04-28T02:19:31;100435.84;;;15.99;67.37
64739;BME280;51175;51.186;0.276;2023-04-28T02:20:02;100440.09;;;16.00;67.36
64739;BME280;51175;51.186;0.276;2023-04-28T02:20:32;100433.97;;;15.99;67.32
64739;BME280;51175;51.186;0.276;2023-04-28T02:21:12;100438.50;;;15.99;67.60
64739;BME280;51175;51.186;0.276;2023-04-28T02:21:42;100447.28;;;15.99;67.42
64739;BME280;51175;51.186;0.276;2023-04-28T02:22:13;100436.63;;;15.99;67.72
64739;BME280;51175;51.186;0.276;2023-04-28T02:22:43;100441.97;;;15.99;67.59
64739;BME280;51175;51.186;0.276;2023-04-28T02:23:14;100438.50;;;15.99;67.68
64739;BME280;51175;51.186;0.276;2023-04-28T02:23:44;100435.84;;;15.99;67.78
64739;BME280;51175;51.186;0.276;2023-04-28T02:24:15;100435.84;;;15.99;67.55
64739;BME280;51175;51.186;0.276;2023-04-28T02:24:45;100433.19;;;15.99;67.68
64739;BME280;51175;51.186;0.276;2023-04-28T02:25:16;100433.97;;;15.99;67.78
64739;BME280;51175;51.186;0.276;2023-04-28T02:25:46;100441.97;;;15.99;67.41
64739;BME280;51175;51.186;0.276;2023-04-28T02:26:16;100433.97;;;15.99;67.60
64739;BME280;51175;51.186;0.276;2023-04-28T02:26:47;100435.06;;;15.98;67.54
64739;BME280;51175;51.186;0.276;2023-04-28T02:27:18;100434.28;;;15.98;67.40
64739;BME280;51175;51.186;0.276;2023-04-28T02:27:48;100430.50;;;15.99;67.57
64739;BME280;51175;51.186;0.276;2023-04-28T02:28:21;100429.75;;;15.98;67.67
64739;BME280;51175;51.186;0.276;2023-04-28T02:28:52;100430.50;;;15.99;67.66
64739;BME280;51175;51.186;0.276;2023-04-28T02:29:22;100434.28;;;15.98;67.51
64739;BME280;51175;51.186;0.276;2023-04-28T02:29:53;100437.75;;;15.98;67.51
64739;BME280;51175;51.186;0.276;2023-04-28T02:30:24;100436.63;;;15.99;67.80
64739;BME280;51175;51.186;0.276;2023-04-28T02:31:07;100427.09;;;15.98;67.67
64739;BME280;51175;51.186;0.276;2023-04-28T02:31:38;100436.94;;;15.98;67.35
64739;BME280;51175;51.186;0.276;2023-04-28T02:32:08;100426.28;;;15.98;67.60
64739;BME280;51175;51.186;0.276;2023-04-28T02:32:39;100426.28;;;15.98;67.45
64739;BME280;51175;51.186;0.276;2023-04-28T02:33:09;100433.19;;;15.99;67.38
64739;BME280;51175;51.186;0.276;2023-04-28T02:33:40;100428.16;;;15.97;67.69
64739;BME280;51175;51.186;0.276;2023-04-28T02:34:12;100428.94;;;15.98;67.67
64739;BME280;51175;51.186;0.276;2023-04-28T02:34:43;100428.94;;;15.98;67.73
64739;BME280;51175;51.186;0.276;2023-04-28T02:35:13;100429.75;;;15.98;67.45
64739;BME280;51175;51.186;0.276;2023-04-28T02:35:44;100425.19;;;15.99;67.68
64739;BME280;51175;51.186;0.276;2023-04-28T02:36:14;100425.19;;;15.99;67.87
64739;BME280;51175;51.186;0.276;2023-04-28T02:36:45;100427.84;;;15.99;67.72
64739;BME280;51175;51.186;0.276;2023-04-28T02:37:15;100421.75;;;15.98;67.73
64739;BME280;51175;51.186;0.276;2023-04-28T02:37:45;100435.06;;;15.98;67.87
64739;BME280;51175;51.186;0.276;2023-04-28T02:38:16;100423.63;;;15.98;67.61
64739;BME280;51175;51.186;0.276;2023-04-28T02:38:46;100426.28;;;15.98;67.67
64739;BME280;51175;51.186;0.276;2023-04-28T02:39:17;100422.81;;;15.97;67.59
64739;BME280;51175;51.186;0.276;2023-04-28T02:39:47;100427.84;;;15.99;67.65
64739;BME280;51175;51.186;0.276;2023-04-28T02:40:18;100426.28;;;15.98;67.47
64739;BME280;51175;51.186;0.276;2023-04-28T02:40:56;100432.41;;;15.98;67.55
64739;BME280;51175;51.186;0.276;2023-04-28T02:41:27;100429.75;;;15.98;67.90